Time;durP1;ratioP1;P1;durP2;ratioP2;P2;SDS_P1;SDS_P2;PMS_P1;PMS_P2;Temp;Humidity;BMP_temperature;BMP_pressure;BME280_temperature;BME280_humidity;BME280_pressure;Samples;Min_cycle;Max_cycle;Signal;HPM_P1;HPM_P2
2023/03/11 00:02:06;;;;;;;1.63;1.52;;;0.00;99.90;;;;;;4971967;28;90033;-29
2023/03/11 00:04:31;;;;;;;1.60;1.35;;;0.00;99.90;;;;;;4960463;28;89314;-30
2023/03/11 00:06:57;;;;;;;1.92;1.40;;;0.00;99.90;;;;;;4969704;28;90131;-30
2023/03/11 00:09:23;;;;;;;1.95;1.75;;;0.00;99.90;;;;;;4961384;28;90131;-32
2023/03/11 00:11:49;;;;;;;3.67;2.65;;;0.10;99.90;;;;;;4968639;28;89925;-30
2023/03/11 00:14:14;;;;;;;1.52;1.42;;;0.10;99.90;;;;;;4963487;28;89494;-33
2023/03/11 00:16:40;;;;;;;2.55;1.35;;;0.10;99.90;;;;;;4967302;28;89155;-29
2023/03/11 00:19:05;;;;;;;6.82;3.67;;;0.10;99.90;;;;;;4965323;28;90304;-29
2023/03/11 00:21:31;;;;;;;3.97;1.55;;;0.10;99.90;;;;;;4964985;28;89936;-31
2023/03/11 00:23:59;;;;;;;4.25;2.17;;;0.10;99.90;;;;;;4971726;28;88415;-29
2023/03/11 00:26:25;;;;;;;;;;;0.10;99.90;;;;;;4948451;28;88705;-31
2023/03/11 00:28:51;;;;;;;3.13;2.13;;;0.10;99.90;;;;;;4974834;28;90539;-29
2023/03/11 00:31:17;;;;;;;3.50;1.95;;;0.20;99.90;;;;;;4961782;28;90732;-32
2023/03/11 00:33:43;;;;;;;27.40;2.40;;;0.20;99.90;;;;;;4965446;28;90095;-32
2023/03/11 00:36:22;;;;;;;2.35;1.65;;;0.20;99.90;;;;;;4973617;28;89166;-30
2023/03/11 00:38:47;;;;;;;1.70;1.60;;;0.10;99.90;;;;;;4966586;28;89736;-29
2023/03/11 00:41:13;;;;;;;4.82;1.23;;;0.10;99.90;;;;;;4972768;28;88703;-31
2023/03/11 00:43:39;;;;;;;5.78;2.92;;;0.10;99.90;;;;;;4962861;28;90323;-30
2023/03/11 00:46:05;;;;;;;2.40;1.60;;;0.10;99.90;;;;;;4969407;28;89074;-31
2023/03/11 00:48:30;;;;;;;2.47;1.77;;;0.10;99.90;;;;;;4968582;28;90308;-30
2023/03/11 00:50:57;;;;;;;2.03;1.83;;;0.10;99.90;;;;;;4967986;28;89533;-30
2023/03/11 00:53:23;;;;;;;8.77;2.97;;;0.10;99.90;;;;;;4970484;28;89379;-29
2023/03/11 00:55:48;;;;;;;7.60;2.67;;;0.10;99.90;;;;;;4965584;28;90178;-31
2023/03/11 00:58:14;;;;;;;7.43;1.98;;;0.10;99.90;;;;;;4972334;28;90551;-32
2023/03/11 01:00:40;;;;;;;10.95;2.08;;;0.10;99.90;;;;;;4945521;28;89790;-31
2023/03/11 01:03:05;;;;;;;5.45;2.22;;;0.10;99.90;;;;;;4974341;28;90722;-30
2023/03/11 01:05:33;;;;;;;2.33;1.40;;;0.10;99.90;;;;;;4962475;28;87688;-29
2023/03/11 01:07:59;;;;;;;6.90;1.60;;;0.10;99.90;;;;;;4976191;28;90343;-29
2023/03/11 01:10:25;;;;;;;1.33;1.20;;;0.10;99.90;;;;;;4961498;28;89739;-32
2023/03/11 01:12:51;;;;;;;8.93;2.60;;;0.10;99.90;;;;;;4961604;28;89611;-30
2023/03/11 01:15:29;;;;;;;3.65;1.63;;;0.10;99.90;;;;;;4971844;28;90126;-30
2023/03/11 01:17:54;;;;;;;3.75;1.63;;;0.10;99.90;;;;;;4965213;28;88928;-29
2023/03/11 01:20:21;;;;;;;2.78;1.70;;;0.10;99.90;;;;;;4970007;28;90921;-29
2023/03/11 01:22:47;;;;;;;2.42;1.33;;;0.10;99.90;;;;;;4966746;28;90148;-31
2023/03/11 01:25:14;;;;;;;4.38;2.28;;;0.00;99.90;;;;;;4968969;28;90064;-31
2023/03/11 01:27:40;;;;;;;13.20;2.13;;;0.00;99.90;;;;;;4968007;28;89771;-30
2023/03/11 01:30:06;;;;;;;2.10;1.77;;;0.00;99.90;;;;;;4965218;28;89571;-32
2023/03/11 01:32:32;;;;;;;6.20;2.10;;;0.00;99.90;;;;;;4969328;28;90406;-31
2023/03/11 01:34:57;;;;;;;4.57;1.83;;;0.00;99.90;;;;;;4967805;28;89153;-31
2023/03/11 01:37:23;;;;;;;2.08;1.70;;;0.00;99.90;;;;;;4968014;28;90371;-30
2023/03/11 01:39:48;;;;;;;3.50;1.75;;;0.00;99.90;;;;;;4969784;28;90610;-30
2023/03/11 01:42:14;;;;;;;6.18;2.35;;;0.00;99.90;;;;;;4975600;28;88489;-29
2023/03/11 01:44:40;;;;;;;2.58;2.10;;;0.00;99.90;;;;;;4961115;28;90045;-31
2023/03/11 01:47:08;;;;;;;2.88;1.77;;;0.00;99.90;;;;;;4974285;28;90033;-28
2023/03/11 01:49:34;;;;;;;;;;;0.00;99.90;;;;;;4962612;28;89004;-30
2023/03/11 01:52:03;;;;;;;5.53;3.13;;;-0.10;99.90;;;;;;4976616;28;89801;-31
2023/03/11 01:54:36;;;;;;;7.13;1.65;;;-0.10;99.90;;;;;;4961213;28;89038;-32
2023/03/11 01:57:06;;;;;;;4.00;2.00;;;-0.10;99.90;;;;;;4975092;28;90776;-29
2023/03/11 01:59:37;;;;;;;1.85;1.75;;;-0.10;99.90;;;;;;4975437;28;90436;-31
2023/03/11 02:02:56;;;;;;;11.98;2.00;;;-0.10;99.90;;;;;;4961218;28;89471;-31
2023/03/11 02:05:23;;;;;;;1.67;1.38;;;-0.10;99.90;;;;;;4916120;28;88457;-29
2023/03/11 02:07:51;;;;;;;2.43;1.67;;;-0.10;99.90;;;;;;4975171;28;90279;-30
2023/03/11 02:10:17;;;;;;;1.95;1.27;;;-0.10;99.90;;;;;;4960777;28;90570;-32
2023/03/11 02:12:44;;;;;;;2.33;2.03;;;-0.10;99.90;;;;;;4974917;28;88566;-30
2023/03/11 02:15:11;;;;;;;3.85;1.38;;;-0.10;99.90;;;;;;4961021;28;89643;-33
2023/03/11 02:17:39;;;;;;;4.07;2.25;;;-0.10;99.90;;;;;;4975397;28;90909;-30
2023/03/11 02:20:17;;;;;;;8.95;3.08;;;-0.20;99.90;;;;;;4961212;28;89683;-32
2023/03/11 02:22:43;;;;;;;2.20;1.73;;;-0.20;99.90;;;;;;4974842;28;89352;-30
2023/03/11 02:25:33;;;;;;;4.20;2.05;;;-0.20;99.90;;;;;;4960900;28;90706;-33
2023/03/11 02:28:01;;;;;;;3.42;2.10;;;-0.20;99.90;;;;;;4974802;28;90500;-29
2023/03/11 02:30:28;;;;;;;7.65;1.70;;;-0.20;99.90;;;;;;4960447;28;90062;-29
2023/03/11 02:32:55;;;;;;;3.40;1.70;;;-0.20;99.90;;;;;;4961145;28;89927;-32
2023/03/11 02:35:22;;;;;;;3.33;1.27;;;-0.10;99.90;;;;;;4974550;28;89653;-30
2023/03/11 02:37:50;;;;;;;8.60;2.40;;;-0.20;99.90;;;;;;4960679;28;90507;-28
2023/03/11 02:40:21;;;;;;;2.17;1.85;;;-0.20;99.90;;;;;;4974312;28;90587;-29
2023/03/11 02:42:52;;;;;;;4.82;1.75;;;-0.20;99.90;;;;;;4972081;28;89063;-31
2023/03/11 02:45:21;;;;;;;5.47;2.20;;;-0.20;99.90;;;;;;4979555;28;89610;-31
2023/03/11 02:47:47;;;;;;;5.82;1.70;;;-0.30;99.90;;;;;;4960662;28;90138;-31
2023/03/11 02:50:17;;;;;;;2.83;1.88;;;-0.30;99.90;;;;;;4967079;28;89464;-28
2023/03/11 02:52:43;;;;;;;5.45;1.58;;;-0.30;99.90;;;;;;4967788;28;89450;-32
2023/03/11 02:55:10;;;;;;;2.35;1.40;;;-0.40;99.90;;;;;;4966812;28;88815;-29
2023/03/11 02:57:37;;;;;;;5.37;1.43;;;-0.40;99.90;;;;;;4965130;28;90005;-31
2023/03/11 03:00:15;;;;;;;3.47;1.73;;;-0.40;99.90;;;;;;4979188;28;90473;-30
2023/03/11 03:02:42;;;;;;;2.70;1.42;;;-0.50;99.90;;;;;;4961266;28;90667;-33
2023/03/11 03:05:09;;;;;;;2.72;1.02;;;-0.60;99.90;;;;;;4971121;28;89439;-28
2023/03/11 03:07:35;;;;;;;9.82;1.65;;;-0.60;99.90;;;;;;4962923;28;89960;-31
2023/03/11 03:10:01;;;;;;;2.45;1.73;;;-0.70;99.90;;;;;;4968795;28;89403;-32
2023/03/11 03:12:26;;;;;;;2.67;1.45;;;-0.70;99.90;;;;;;4964923;28;90706;-31
2023/03/11 03:14:52;;;;;;;5.53;1.77;;;-0.80;99.90;;;;;;4967209;28;88288;-29
2023/03/11 03:17:18;;;;;;;11.93;3.72;;;-0.80;99.90;;;;;;4980038;28;90631;-30
2023/03/11 03:19:43;;;;;;;1.70;1.60;;;-0.80;99.90;;;;;;4965410;28;89785;-32
2023/03/11 03:22:09;;;;;;;3.80;1.33;;;-0.80;99.90;;;;;;4969114;28;90512;-31
2023/03/11 03:24:34;;;;;;;2.13;1.80;;;-0.80;99.90;;;;;;4961583;28;89315;-29
2023/03/11 03:27:00;;;;;;;1.63;1.45;;;-0.80;99.90;;;;;;4971595;28;90523;-34
2023/03/11 03:29:25;;;;;;;5.03;2.00;;;-0.70;99.90;;;;;;4960741;28;90116;-30
2023/03/11 03:31:51;;;;;;;2.58;1.98;;;-0.70;99.90;;;;;;4972924;28;89731;-30
2023/03/11 03:34:17;;;;;;;2.95;1.60;;;-0.70;99.90;;;;;;4960172;28;88280;-32
2023/03/11 03:36:42;;;;;;;1.50;1.10;;;-0.80;99.90;;;;;;4973571;28;90389;-31
2023/03/11 03:39:08;;;;;;;1.45;1.35;;;-0.80;99.90;;;;;;4960170;28;89471;-29
2023/03/11 03:41:33;;;;;;;3.75;1.83;;;-0.80;99.90;;;;;;4974100;28;90841;-30
2023/03/11 03:43:59;;;;;;;2.55;1.17;;;-0.80;99.90;;;;;;4960151;28;88438;-30
2023/03/11 03:46:25;;;;;;;4.07;1.75;;;-0.90;99.90;;;;;;4973513;28;90167;-32
2023/03/11 03:48:51;;;;;;;3.63;1.45;;;-0.90;99.90;;;;;;4958702;28;91253;-28
2023/03/11 03:51:17;;;;;;;4.60;1.75;;;-1.00;99.90;;;;;;4942659;28;90587;-29
2023/03/11 03:53:45;;;;;;;2.67;1.35;;;-1.00;99.90;;;;;;4973954;28;88364;-31
2023/03/11 03:56:13;;;;;;;5.68;2.20;;;-1.00;99.90;;;;;;4958102;28;89871;-28
2023/03/11 03:58:39;;;;;;;1.35;1.25;;;-1.10;99.90;;;;;;4973180;28;89672;-31
2023/03/11 04:01:05;;;;;;;1.20;1.10;;;-1.10;99.90;;;;;;4959470;28;89781;-31
2023/03/11 04:03:34;;;;;;;1.90;1.80;;;-1.20;99.90;;;;;;4973538;28;90153;-28
2023/03/11 04:06:15;;;;;;;5.03;1.92;;;-1.20;99.90;;;;;;4959732;28;90149;-29
2023/03/11 04:08:41;;;;;;;1.80;1.52;;;-1.30;99.90;;;;;;4973359;28;89781;-30
2023/03/11 04:11:07;;;;;;;2.50;1.88;;;-1.30;99.90;;;;;;4958960;28;89429;-33
2023/03/11 04:13:32;;;;;;;3.00;1.73;;;-1.40;99.90;;;;;;4971212;28;88872;-29
2023/03/11 04:15:58;;;;;;;1.55;1.45;;;-1.40;99.90;;;;;;4961011;28;90391;-31
2023/03/11 04:18:24;;;;;;;2.10;1.23;;;-1.50;99.90;;;;;;4969929;28;89614;-28
2023/03/11 04:20:49;;;;;;;1.10;1.10;;;-1.50;99.90;;;;;;4962042;28;89439;-30
2023/03/11 04:23:15;;;;;;;3.35;1.85;;;-1.50;99.90;;;;;;4967553;28;89046;-31
2023/03/11 04:25:41;;;;;;;3.40;1.35;;;-1.50;99.90;;;;;;4965137;28;91312;-30
2023/03/11 04:28:06;;;;;;;1.95;1.23;;;-1.50;99.90;;;;;;4965379;28;89947;-28
2023/03/11 04:30:32;;;;;;;4.68;1.88;;;-1.60;99.90;;;;;;4966803;28;89567;-31
2023/03/11 04:32:58;;;;;;;5.40;2.65;;;-1.60;99.90;;;;;;4963292;28;89126;-32
2023/03/11 04:35:23;;;;;;;5.00;1.52;;;-1.60;99.90;;;;;;4968754;28;90602;-32
2023/03/11 04:37:49;;;;;;;9.63;2.28;;;-1.60;99.90;;;;;;4960567;28;89800;-29
2023/03/11 04:40:14;;;;;;;4.50;1.67;;;-1.70;99.90;;;;;;4970516;28;90293;-30
2023/03/11 04:42:40;;;;;;;5.05;2.05;;;-1.70;99.90;;;;;;4959906;28;88153;-32
2023/03/11 04:45:07;;;;;;;7.60;2.08;;;-1.70;99.90;;;;;;4972210;28;90741;-29
2023/03/11 04:47:32;;;;;;;3.42;1.58;;;-1.70;99.90;;;;;;4959000;28;89861;-32
2023/03/11 04:49:58;;;;;;;1.50;1.38;;;-1.70;99.90;;;;;;4972785;28;89442;-31
2023/03/11 04:52:23;;;;;;;3.53;1.80;;;-1.70;99.90;;;;;;4972369;28;89424;-31
2023/03/11 04:54:49;;;;;;;1.50;1.10;;;-1.70;99.90;;;;;;4971469;28;90935;-30
2023/03/11 04:57:15;;;;;;;5.32;1.55;;;-1.80;99.90;;;;;;4959690;28;90242;-30
2023/03/11 04:59:41;;;;;;;4.55;1.40;;;-1.70;99.90;;;;;;4969717;28;89447;-32
2023/03/11 05:02:07;;;;;;;3.50;2.28;;;-1.80;99.90;;;;;;4961369;28;89126;-28
2023/03/11 05:04:32;;;;;;;1.30;1.20;;;-1.80;99.90;;;;;;4967534;28;89658;-28
2023/03/11 05:06:58;;;;;;;1.88;1.77;;;-1.90;99.90;;;;;;4964288;28;90036;-29
2023/03/11 05:09:23;;;;;;;4.10;1.70;;;-1.90;99.90;;;;;;4968302;28;89116;-32
2023/03/11 05:11:49;;;;;;;2.47;1.83;;;-1.90;99.90;;;;;;4970162;28;89054;-29
2023/03/11 05:14:15;;;;;;;2.05;1.45;;;-1.90;99.90;;;;;;4965417;28;91220;-29
2023/03/11 05:16:40;;;;;;;6.20;1.65;;;-2.00;99.90;;;;;;4971722;28;89597;-30
2023/03/11 05:19:29;;;;;;;4.22;2.95;;;-2.00;99.90;;;;;;4963499;28;89563;-29
2023/03/11 05:21:52;;;;;;;3.58;1.50;;;-2.00;99.90;;;;;;4970355;28;88640;-28
2023/03/11 05:24:18;;;;;;;2.47;1.25;;;-2.00;99.90;;;;;;4964471;28;90552;-30
2023/03/11 05:26:43;;;;;;;1.17;1.08;;;-2.10;99.90;;;;;;4972044;28;90684;-27
2023/03/11 05:29:09;;;;;;;2.35;1.90;;;-2.00;99.90;;;;;;4962633;28;90466;-30
2023/03/11 05:31:34;;;;;;;1.85;1.20;;;-2.10;99.90;;;;;;4975103;28;89918;-31
2023/03/11 05:34:00;;;;;;;9.02;1.50;;;-2.10;99.90;;;;;;4961877;28;90488;-34
2023/03/11 05:36:26;;;;;;;2.15;1.95;;;-2.10;99.90;;;;;;4975470;28;90133;-28
2023/03/11 05:38:52;;;;;;;3.42;1.58;;;-2.10;99.90;;;;;;4961426;28;89927;-30
2023/03/11 05:41:18;;;;;;;1.63;1.00;;;-2.10;99.90;;;;;;4957550;28;87627;-29
2023/03/11 05:43:44;;;;;;;2.60;1.27;;;-2.10;99.90;;;;;;4961755;28;89786;-30
2023/03/11 05:46:10;;;;;;;1.50;1.15;;;-2.10;99.90;;;;;;4974851;28;91135;-29
2023/03/11 05:48:36;;;;;;;2.95;1.75;;;-2.20;99.90;;;;;;4961039;28;88143;-28
2023/03/11 05:51:06;;;;;;;1.83;1.65;;;-2.20;99.90;;;;;;4964164;28;90398;-30
2023/03/11 05:53:32;;;;;;;6.38;1.63;;;-2.20;99.90;;;;;;4975570;28;89968;-30
2023/03/11 05:55:59;;;;;;;6.28;2.63;;;-2.20;99.90;;;;;;4961385;28;89839;-30
2023/03/11 05:58:25;;;;;;;2.83;1.90;;;-2.20;99.90;;;;;;4975521;28;89729;-29
2023/03/11 06:00:52;;;;;;;1.75;1.65;;;-2.20;99.90;;;;;;4967111;28;89626;-29
2023/03/11 06:03:17;;;;;;;2.38;2.17;;;-2.20;99.90;;;;;;4969115;28;90477;-30
2023/03/11 06:05:48;;;;;;;3.35;1.80;;;-2.20;99.90;;;;;;4975299;28;89960;-27
2023/03/11 06:08:13;;;;;;;2.08;1.52;;;-2.20;99.90;;;;;;4961146;28;89921;-28
2023/03/11 06:10:39;;;;;;;2.20;1.40;;;-2.20;99.90;;;;;;4956949;28;89280;-28
2023/03/11 06:13:05;;;;;;;2.28;1.73;;;-2.20;99.90;;;;;;4960566;28;89897;-29
2023/03/11 06:15:32;;;;;;;6.30;1.80;;;-2.10;99.90;;;;;;4974140;28;91255;-28
2023/03/11 06:17:58;;;;;;;3.63;2.10;;;-2.20;99.90;;;;;;4943452;28;90597;-29
2023/03/11 06:20:24;;;;;;;5.30;2.53;;;-2.20;99.90;;;;;;4973234;28;88879;-27
2023/03/11 06:22:51;;;;;;;2.80;1.67;;;-2.20;99.90;;;;;;4960859;28;90402;-27
2023/03/11 06:25:16;;;;;;;2.97;1.83;;;-2.20;99.90;;;;;;4971490;28;90179;-31
2023/03/11 06:27:43;;;;;;;5.85;1.60;;;-2.20;99.90;;;;;;4963479;28;89593;-28
2023/03/11 06:30:10;;;;;;;4.03;1.50;;;-2.20;99.90;;;;;;4951825;28;89165;-29
2023/03/11 06:32:36;;;;;;;1.92;1.55;;;-2.20;99.90;;;;;;4966041;28;90329;-31
2023/03/11 06:35:05;;;;;;;3.65;1.88;;;-2.10;99.90;;;;;;4967765;28;89198;-28
2023/03/11 06:37:30;;;;;;;3.42;1.90;;;-2.10;99.90;;;;;;4966756;28;89508;-29
2023/03/11 06:39:56;;;;;;;3.55;1.65;;;-2.10;99.90;;;;;;4966015;28;90261;-28
2023/03/11 06:42:25;;;;;;;2.45;2.25;;;-2.10;99.90;;;;;;4969334;28;90770;-26
2023/03/11 06:44:51;;;;;;;3.28;1.63;;;-2.00;99.90;;;;;;4964659;28;89991;-27
2023/03/11 06:47:16;;;;;;;4.55;1.50;;;-2.00;99.90;;;;;;4968882;28;89444;-27
2023/03/11 06:49:43;;;;;;;3.85;1.95;;;-2.00;99.90;;;;;;4962878;28;88912;-31
2023/03/11 06:52:09;;;;;;;2.17;1.50;;;-2.00;99.90;;;;;;4965872;28;90683;-29
2023/03/11 06:54:35;;;;;;;1.73;1.40;;;-1.90;99.90;;;;;;4980173;28;89931;-30
2023/03/11 06:57:01;;;;;;;4.78;1.80;;;-1.90;99.90;;;;;;4963725;28;89771;-31
2023/03/11 06:59:27;;;;;;;4.95;1.98;;;-1.90;99.90;;;;;;4961923;28;89701;-27
2023/03/11 07:01:53;;;;;;;3.17;1.40;;;-1.80;99.90;;;;;;4973506;28;90374;-28
2023/03/11 07:04:19;;;;;;;2.13;1.85;;;-1.80;99.90;;;;;;4959558;28;90840;-26
2023/03/11 07:06:45;;;;;;;1.75;1.40;;;-1.80;99.90;;;;;;4972336;28;91134;-30
2023/03/11 07:09:11;;;;;;;2.92;1.48;;;-1.70;99.90;;;;;;4961726;28;87796;-29
2023/03/11 07:11:37;;;;;;;2.80;1.52;;;-1.70;99.90;;;;;;4970449;28;90111;-30
2023/03/11 07:14:04;;;;;;;4.70;1.88;;;-1.60;99.90;;;;;;4963021;28;90228;-31
2023/03/11 07:16:30;;;;;;;4.13;1.77;;;-1.60;99.90;;;;;;4968715;28;90955;-27
2023/03/11 07:18:59;;;;;;;2.10;1.80;;;-1.50;99.90;;;;;;4965503;28;89449;-30
2023/03/11 07:21:26;;;;;;;5.20;2.53;;;-1.50;99.90;;;;;;4967038;28;89968;-29
2023/03/11 07:23:56;;;;;;;5.07;1.05;;;-1.30;99.90;;;;;;4966848;28;89720;-27
2023/03/11 07:26:23;;;;;;;3.25;1.48;;;-1.30;99.90;;;;;;4959484;28;89563;-29
2023/03/11 07:28:49;;;;;;;15.02;1.65;;;-1.20;99.90;;;;;;4972699;28;90043;-29
2023/03/11 07:31:17;;;;;;;5.13;2.15;;;-1.10;99.90;;;;;;4960972;28;90230;-31
2023/03/11 07:33:44;;;;;;;3.13;1.35;;;-1.00;99.90;;;;;;4970011;28;88533;-29
2023/03/11 07:36:15;;;;;;;8.02;1.25;;;-0.90;99.90;;;;;;4963052;28;90257;-31
2023/03/11 07:38:41;;;;;;;4.45;1.77;;;-0.80;99.90;;;;;;4969198;28;88485;-32
2023/03/11 07:41:08;;;;;;;1.92;1.73;;;-0.60;99.90;;;;;;4964238;28;90710;-29
2023/03/11 07:43:33;;;;;;;2.35;2.00;;;-0.50;99.90;;;;;;4967403;28;90168;-30
2023/03/11 07:46:10;;;;;;;4.55;2.05;;;-0.40;99.90;;;;;;4966605;28;89503;-29
2023/03/11 07:48:37;;;;;;;2.63;2.15;;;-0.20;99.90;;;;;;4972646;28;87597;-29
2023/03/11 07:51:05;;;;;;;2.38;1.92;;;-0.10;99.90;;;;;;4958583;28;89517;-28
2023/03/11 07:53:31;;;;;;;3.05;1.50;;;0.10;99.90;;;;;;4959937;28;90657;-30
2023/03/11 07:55:58;;;;;;;2.13;1.80;;;0.20;99.90;;;;;;4972346;28;90558;-31
2023/03/11 07:58:24;;;;;;;6.70;1.80;;;0.40;99.90;;;;;;4959375;28;88896;-30
2023/03/11 08:00:51;;;;;;;3.70;1.52;;;0.50;99.90;;;;;;4973053;28;89693;-32
2023/03/11 08:03:17;;;;;;;1.52;1.40;;;0.70;99.90;;;;;;4959418;28;89387;-30
2023/03/11 08:05:43;;;;;;;2.17;1.60;;;0.80;99.90;;;;;;4973196;28;89508;-28
2023/03/11 08:08:08;;;;;;;3.20;1.90;;;0.90;99.90;;;;;;4959708;28;89901;-31
2023/03/11 08:10:37;;;;;;;2.92;1.80;;;1.10;99.90;;;;;;4974006;28;90549;-28
2023/03/11 08:13:03;;;;;;;1.23;1.13;;;1.30;99.90;;;;;;4959217;28;90897;-28
2023/03/11 08:15:29;;;;;;;1.70;1.40;;;1.50;99.90;;;;;;4972729;28;89671;-30
2023/03/11 08:17:54;;;;;;;6.30;2.25;;;1.60;99.90;;;;;;4959651;28;89312;-28
2023/03/11 08:20:20;;;;;;;6.32;1.73;;;1.80;99.90;;;;;;4971610;28;90442;-30
2023/03/11 08:22:46;;;;;;;4.07;1.67;;;1.90;99.90;;;;;;4961159;28;89500;-28
2023/03/11 08:25:11;;;;;;;3.90;2.17;;;2.10;99.90;;;;;;4969066;28;90461;-29
2023/03/11 08:27:37;;;;;;;2.50;2.30;;;2.30;99.90;;;;;;4962714;28;88368;-30
2023/03/11 08:30:04;;;;;;;2.80;1.83;;;2.40;99.90;;;;;;4967657;28;89697;-27
2023/03/11 08:32:30;;;;;;;3.28;2.20;;;2.60;99.90;;;;;;4978369;28;90279;-28
2023/03/11 08:34:57;;;;;;;2.60;1.90;;;2.70;99.90;;;;;;4965894;28;89959;-32
2023/03/11 08:37:22;;;;;;;2.30;1.52;;;2.90;99.90;;;;;;4966668;28;88524;-28
2023/03/11 08:39:48;;;;;;;2.92;1.98;;;3.00;99.90;;;;;;4963021;28;90254;-28
2023/03/11 08:42:15;;;;;;;1.70;1.60;;;3.20;99.90;;;;;;4968027;28;91001;-29
2023/03/11 08:44:41;;;;;;;2.58;2.15;;;3.20;99.90;;;;;;4965329;28;90430;-31
2023/03/11 08:47:07;;;;;;;1.38;1.27;;;3.30;99.90;;;;;;4972703;28;89411;-30
2023/03/11 08:49:32;;;;;;;2.08;1.88;;;3.50;99.90;;;;;;4963554;28;90637;-27
2023/03/11 08:51:58;;;;;;;1.90;1.73;;;3.60;99.90;;;;;;4967588;28;89677;-32
2023/03/11 08:54:24;;;;;;;2.88;1.30;;;3.70;99.90;;;;;;4973517;28;89076;-31
2023/03/11 08:56:49;;;;;;;3.17;2.88;;;3.90;99.90;;;;;;4971641;28;87614;-29
2023/03/11 08:59:15;;;;;;;1.88;1.50;;;4.00;99.90;;;;;;4966551;28;90270;-31
2023/03/11 09:01:41;;;;;;;4.85;2.08;;;4.00;99.90;;;;;;4967617;28;90150;-29
2023/03/11 09:04:07;;;;;;;2.85;2.05;;;4.20;99.90;;;;;;4971869;28;89608;-29
2023/03/11 09:06:33;;;;;;;3.47;1.92;;;4.40;99.90;;;;;;4970349;28;88776;-32
2023/03/11 09:08:59;;;;;;;2.53;1.83;;;4.60;99.90;;;;;;4970193;28;89353;-30
2023/03/11 09:11:25;;;;;;;3.60;1.65;;;4.70;99.90;;;;;;4972225;28;89527;-28
2023/03/11 09:13:50;;;;;;;4.07;1.73;;;4.80;99.90;;;;;;4968948;28;89423;-30
2023/03/11 09:16:19;;;;;;;3.17;1.85;;;5.00;99.90;;;;;;4966288;28;89749;-31
2023/03/11 09:18:45;;;;;;;2.35;1.75;;;5.20;99.90;;;;;;4965550;28;90319;-29
2023/03/11 09:21:11;;;;;;;4.00;1.92;;;5.30;99.90;;;;;;4972369;28;89733;-30
2023/03/11 09:23:37;;;;;;;6.72;1.95;;;5.50;99.90;;;;;;4969693;28;90114;-29
2023/03/11 09:26:03;;;;;;;7.78;2.53;;;5.70;99.90;;;;;;4970738;28;88990;-31
2023/03/11 09:28:28;;;;;;;4.93;2.92;;;5.80;99.90;;;;;;4945778;28;91020;-28
2023/03/11 09:30:54;;;;;;;4.97;2.13;;;6.20;99.90;;;;;;4949718;28;90811;-28
2023/03/11 09:33:20;;;;;;;1.73;1.30;;;6.10;99.90;;;;;;4973299;28;90263;-29
2023/03/11 09:35:45;;;;;;;7.43;2.05;;;6.30;99.90;;;;;;4967558;28;89431;-29
2023/03/11 09:38:11;;;;;;;6.78;2.75;;;6.40;99.90;;;;;;4972448;28;89918;-31
2023/03/11 09:40:46;;;;;;;2.35;1.73;;;6.50;99.90;;;;;;4969042;28;89961;-32
2023/03/11 09:43:20;;;;;;;6.22;2.40;;;6.60;99.90;;;;;;4972105;28;89869;-31
2023/03/11 09:46:04;;;;;;;6.00;2.47;;;6.70;99.90;;;;;;4969501;28;89939;-31
2023/03/11 09:48:42;;;;;;;3.13;2.05;;;6.70;99.90;;;;;;4965371;28;90543;-33
2023/03/11 09:51:24;;;;;;;3.92;2.17;;;6.90;99.90;;;;;;4962678;28;89882;-32
2023/03/11 09:53:54;;;;;;;2.65;1.63;;;;;;;;;;4962154;28;88789;-31
2023/03/11 09:56:21;;;;;;;2.85;1.77;;;7.10;99.90;;;;;;4967413;28;89110;-31
2023/03/11 09:59:12;;;;;;;2.20;1.67;;;7.20;99.90;;;;;;4962152;28;90197;-29
2023/03/11 10:01:43;;;;;;;8.30;2.35;;;7.30;99.90;;;;;;4966479;28;88059;-28
2023/03/11 10:04:19;;;;;;;3.58;1.80;;;7.30;99.90;;;;;;4963401;28;89725;-30
2023/03/11 10:06:46;;;;;;;2.45;1.63;;;7.40;99.90;;;;;;4966525;28;89909;-32
2023/03/11 10:09:21;;;;;;;1.95;1.80;;;7.40;99.90;;;;;;4963549;28;90151;-31
2023/03/11 10:11:46;;;;;;;11.80;3.00;;;7.40;99.90;;;;;;4967186;28;89733;-29
2023/03/11 10:14:26;;;;;;;1.83;1.73;;;7.40;99.90;;;;;;4962591;28;89908;-33
2023/03/11 10:17:06;;;;;;;3.95;2.08;;;7.50;99.90;;;;;;4966787;28;89516;-31
2023/03/11 10:19:32;;;;;;;2.75;1.75;;;7.60;99.90;;;;;;4964201;28;90397;-28
2023/03/11 10:22:24;;;;;;;3.97;2.42;;;7.60;99.90;;;;;;4966948;28;90717;-31
2023/03/11 10:25:24;;;;;;;1.85;1.33;;;7.70;99.90;;;;;;4958834;28;91431;-30
2023/03/11 10:28:07;;;;;;;6.82;2.40;;;7.70;99.90;;;;;;4954064;28;88631;-29
2023/03/11 10:30:51;;;;;;;11.27;1.88;;;7.80;99.90;;;;;;4959512;28;90434;-29
2023/03/11 10:33:22;;;;;;;10.50;2.20;;;7.80;99.90;;;;;;4964776;28;89617;-30
2023/03/11 10:35:57;;;;;;;3.30;2.53;;;7.50;99.90;;;;;;4977035;28;89973;-30
2023/03/11 10:38:28;;;;;;;8.23;2.95;;;7.60;99.90;;;;;;4965394;28;89610;-31
2023/03/11 10:40:57;;;;;;;2.85;1.75;;;7.70;99.90;;;;;;4975476;28;88868;-28
2023/03/11 10:43:43;;;;;;;3.15;1.98;;;7.80;99.90;;;;;;4971537;28;90706;-27
2023/03/11 10:46:21;;;;;;;2.25;1.90;;;7.60;99.90;;;;;;4963100;28;90450;-30
2023/03/11 10:48:47;;;;;;;2.50;1.77;;;7.60;99.90;;;;;;4966027;28;89911;-29
2023/03/11 10:51:23;;;;;;;5.18;2.28;;;7.40;99.90;;;;;;4960406;28;89757;-30
2023/03/11 10:53:52;;;;;;;3.03;1.85;;;7.30;99.90;;;;;;4961368;28;89346;-30
2023/03/11 10:56:31;;;;;;;5.57;2.00;;;7.00;99.90;;;;;;4966644;28;89255;-28
2023/03/11 10:58:58;;;;;;;4.68;1.80;;;6.90;99.90;;;;;;4962874;28;88644;-31
2023/03/11 11:01:24;;;;;;;4.13;1.73;;;6.90;99.90;;;;;;4968140;28;89705;-28
2023/03/11 11:03:55;;;;;;;2.13;1.73;;;7.00;99.90;;;;;;4960187;28;90023;-30
2023/03/11 11:06:32;;;;;;;3.53;2.60;;;7.10;99.90;;;;;;4968447;28;89067;-27
2023/03/11 11:09:20;;;;;;;2.47;1.77;;;7.20;99.90;;;;;;4960239;28;89242;-29
2023/03/11 11:12:17;;;;;;;2.25;1.75;;;7.20;99.90;;;;;;4965712;28;90011;-29
2023/03/11 11:14:47;;;;;;;6.25;2.15;;;7.10;99.90;;;;;;4949105;28;91630;-28
2023/03/11 11:17:29;;;;;;;3.92;1.88;;;7.20;99.90;;;;;;4957728;28;90236;-30
2023/03/11 11:19:58;;;;;;;2.28;2.10;;;7.20;99.90;;;;;;4969091;28;88382;-28
2023/03/11 11:22:24;;;;;;;4.15;1.77;;;7.00;99.90;;;;;;4958322;28;89192;-31
2023/03/11 11:24:53;;;;;;;3.55;1.85;;;7.10;99.90;;;;;;4969856;28;89906;-29
2023/03/11 11:27:23;;;;;;;5.38;2.42;;;7.00;99.90;;;;;;4940054;28;88305;-31
2023/03/11 11:30:22;;;;;;;3.17;2.10;;;7.10;99.90;;;;;;4953558;28;89798;-31
2023/03/11 11:32:47;;;;;;;2.92;1.95;;;6.80;99.90;;;;;;4913385;28;90355;-29
2023/03/11 11:35:18;;;;;;;2.97;1.83;;;6.90;99.90;;;;;;4948289;28;89021;-30
2023/03/11 11:37:52;;;;;;;2.60;1.45;;;6.80;99.90;;;;;;4961928;28;89436;-29
2023/03/11 11:40:30;;;;;;;5.20;2.15;;;7.00;99.90;;;;;;4964900;28;89852;-31
2023/03/11 11:43:02;;;;;;;3.33;3.00;;;6.90;99.90;;;;;;4960499;28;90141;-29
2023/03/11 11:45:39;;;;;;;4.72;2.05;;;7.10;99.90;;;;;;4972201;28;89021;-31
2023/03/11 11:48:16;;;;;;;2.50;2.30;;;7.10;99.90;;;;;;4994229;22;89800;-32
2023/03/11 11:50:50;;;;;;;3.13;2.38;;;7.20;99.90;;;;;;4958854;28;89001;-31
2023/03/11 11:53:38;;;;;;;4.25;2.28;;;6.90;99.90;;;;;;4957329;28;89957;-30
2023/03/11 11:56:04;;;;;;;5.03;2.10;;;6.90;99.90;;;;;;4963131;28;89534;-29
2023/03/11 11:58:30;;;;;;;3.45;1.50;;;6.90;99.90;;;;;;4964489;28;89251;-31
2023/03/11 12:01:22;;;;;;;3.17;1.80;;;6.80;99.90;;;;;;4957677;28;88991;-29
2023/03/11 12:04:02;;;;;;;4.85;1.98;;;7.00;99.90;;;;;;4957171;28;90680;-31
2023/03/11 12:06:48;;;;;;;2.40;2.03;;;6.90;99.90;;;;;;4956426;28;90629;-30
2023/03/11 12:09:29;;;;;;;5.95;2.17;;;6.90;99.90;;;;;;4956594;28;89826;-31
2023/03/11 12:12:15;;;;;;;8.30;2.58;;;6.60;99.90;;;;;;4956583;28;88889;-27
2023/03/11 12:15:01;;;;;;;6.32;2.00;;;6.60;99.90;;;;;;4959220;28;90513;-29
2023/03/11 12:17:30;;;;;;;3.15;2.30;;;6.60;99.90;;;;;;4955615;28;90204;-31
2023/03/11 12:19:59;;;;;;;;;;;6.60;99.90;;;;;;4963941;28;89873;-31
2023/03/11 12:23:13;;;;;;;3.47;1.83;;;6.50;99.90;;;;;;4965367;28;89209;-28
2023/03/11 12:25:44;;;;;;;4.07;2.38;;;6.40;99.90;;;;;;4922504;28;90397;-29
2023/03/11 12:28:22;;;;;;;2.53;2.17;;;6.60;99.90;;;;;;4956461;28;89614;-29
2023/03/11 12:30:55;;;;;;;2.17;1.85;;;6.70;99.90;;;;;;4956582;28;88926;-29
2023/03/11 12:33:26;;;;;;;2.72;1.67;;;6.70;99.90;;;;;;4956371;28;90455;-32
2023/03/11 12:35:54;;;;;;;4.70;2.28;;;6.30;99.90;;;;;;4957049;28;90113;-30
2023/03/11 12:38:30;;;;;;;11.18;1.77;;;6.40;99.90;;;;;;4957002;28;90554;-31
2023/03/11 12:40:58;;;;;;;2.03;1.77;;;6.40;99.90;;;;;;4955880;28;90550;-29
2023/03/11 12:43:32;;;;;;;4.07;1.83;;;6.30;99.90;;;;;;4955919;28;88954;-29
2023/03/11 12:46:10;;;;;;;11.60;2.22;;;6.30;99.90;;;;;;4956819;28;90753;-28
2023/03/11 12:48:41;;;;;;;1.60;1.33;;;6.50;99.90;;;;;;4956833;28;89978;-30
2023/03/11 12:51:33;;;;;;;9.25;1.52;;;6.40;99.90;;;;;;4955999;28;89503;-30
2023/03/11 12:54:20;;;;;;;5.05;1.65;;;6.40;99.90;;;;;;4969689;28;89907;-30
2023/03/11 12:56:54;;;;;;;3.03;1.55;;;6.40;99.90;;;;;;4956518;28;90245;-30
2023/03/11 12:59:57;;;;;;;2.72;1.80;;;6.40;99.90;;;;;;4968438;28;90735;-30
2023/03/11 13:02:31;;;;;;;10.32;2.22;;;6.30;99.90;;;;;;4960080;28;90369;-31
2023/03/11 13:05:03;;;;;;;3.30;2.53;;;6.40;99.90;;;;;;4965940;28;90426;-27